Cape Lambert — V7TC9 — position and weather

sailwx.info

Track history (hours):
 
Tides and Currents Weather Stations Pressure Air Temp Water Temp Dewpoint Dewpoint Depression Visibility Wind Speed Wind Dir Waves Ship Positions

Cape Lambert

Last reported at 2017-May-31 21:23 UTC. Time now 2017-Jun-22 18:35 UTC.
Position N 30°41' E 123°25'.
Warning: this ship's position is 21 days out of date.

Length 290 m; draft 9.2 m.

Type: Cargo ship. MMSI: 538003781.

Date/timePositionNaut miles runAvg speedWind from/ knotsBaromVisibWave heightAir tempDewpointWater temp
2017-May-31 21:23N 30°41' E 123°25'10 9.2
2017-May-31 20:15N 30°51' E 123°27'5 9.4
2017-May-31 19:46N 30°56' E 123°27'3 9.3
2017-May-31 19:29N 30°58' E 123°27'4 9.3
2017-May-31 19:00N 31°03' E 123°27'5 9.1
2017-May-31 18:31N 31°07' E 123°27'5 9.1
2017-May-31 18:00N 31°12' E 123°28'5 9.6
2017-May-31 17:30N 31°17' E 123°28'2710.1
2017-May-31 14:52N 31°43' E 123°26'411.2
2017-May-31 14:30N 31°47' E 123°26'1111.3
2017-May-31 13:30N 31°59' E 123°26'611.4
2017-May-31 13:00N 32°05' E 123°25'611.7
2017-May-31 12:30N 32°10' E 123°25'611.8
2017-May-31 12:00N 32°16' E 123°24'  
Track history (hours):
 
Tides and Currents Weather Stations Pressure Air Temp Water Temp Dewpoint Dewpoint Depression Visibility Wind Speed Wind Dir Waves Ship Positions

Cape Lambert

Last reported at 2017-May-31 21:23 UTC. Time now 2017-Jun-22 18:35 UTC.
Position N 30°41' E 123°25'.
Warning: this ship's position is 21 days out of date.

Length 290 m; draft 9.2 m.

Type: Cargo ship. MMSI: 538003781.

Date/timePositionNaut miles runAvg speedWind from/ knotsBaromVisibWave heightAir tempDewpointWater temp
2017-May-31 21:23N 30°41' E 123°25'10 9.2
2017-May-31 20:15N 30°51' E 123°27'5 9.4
2017-May-31 19:46N 30°56' E 123°27'3 9.3
2017-May-31 19:29N 30°58' E 123°27'4 9.3
2017-May-31 19:00N 31°03' E 123°27'5 9.1
2017-May-31 18:31N 31°07' E 123°27'5 9.1
2017-May-31 18:00N 31°12' E 123°28'5 9.6
2017-May-31 17:30N 31°17' E 123°28'2710.1
2017-May-31 14:52N 31°43' E 123°26'411.2
2017-May-31 14:30N 31°47' E 123°26'1111.3
2017-May-31 13:30N 31°59' E 123°26'611.4
2017-May-31 13:00N 32°05' E 123°25'611.7
2017-May-31 12:30N 32°10' E 123°25'611.8
2017-May-31 12:00N 32°16' E 123°24'  

Dump ship's entire track history